map of SDN home
SDN - Airport
Location
City:  Anda, Norway
Near (Alt.):Sandane
Name:Sandane
ICAO:ENSD
IATA:SDN

Details
Type:Airport (Aerodrome, Airfield)
Latitude:6149'48"N (61.830000)
Longitude:606'34"E (6.109444)
Elevation:196 ft (60 m)
Variation:1.56E (WMM2015v2 magnetic declination)
0.23 annual change
Runways:1
Longest:2559 × 98 ft (780 × 30 m), paved

Time
Time Zone:UTC+1 (DST+2)
Local Time:

Weather
METAR:ENSD 041350Z 15005KT CAVOK 01/M03 Q1006 RMK WIND 1138FT 08008KT

Related Locations
Nearby:
Farthest:NZTB: 11390 mi / 18330 km
Terra Nova Bay [Mario Zucchelli Station], AQ

Find:

   beyond  
but within

Other Information
Maps:
NOTAMs:
Links:
Sources:

  
  • flag of Norway
  

Sectional Chart

Flight Planning
at skyvector.com

Satellite Image

Google Maps Satellite view

 

Copyright © 2004-2019 Karl L. Swartz. All rights reserved.
The Great Circle Mapper name and logo are trademarks of the Great Circle Mapper.
All other trademarks mentioned herein belong to their respective owners.
Please see credits for attibutions and further copyright information.

  Follow gcmap on Facebook Follow gcmap on Twitter GCmap on LinkedIn

hCard Microformat

Geo Microformat